createdAt,value
2018-11-04T00:04:41.358Z,40.53
2018-11-04T00:07:09.930Z,39.77
2018-11-04T00:09:38.520Z,37.13
2018-11-04T00:12:07.210Z,35.40
2018-11-04T00:14:35.748Z,36.93
2018-11-04T00:17:05.193Z,35.87
2018-11-04T00:19:33.732Z,42.63
2018-11-04T00:22:02.422Z,36.87
2018-11-04T00:24:31.420Z,38.60
2018-11-04T00:27:00.083Z,34.87
2018-11-04T00:29:28.699Z,33.17
2018-11-04T00:31:57.224Z,36.30
2018-11-04T00:34:26.064Z,37.07
2018-11-04T00:36:54.721Z,37.00
2018-11-04T00:39:23.221Z,36.33
2018-11-04T00:41:52.344Z,38.83
2018-11-04T00:44:20.827Z,37.40
2018-11-04T00:46:50.698Z,38.53
2018-11-04T00:49:19.420Z,35.27
2018-11-04T00:51:48.519Z,38.30
2018-11-04T00:54:17.206Z,38.93
2018-11-04T00:56:45.796Z,36.27
2018-11-04T00:59:14.416Z,38.70
2018-11-04T01:01:42.973Z,41.80
2018-11-04T01:04:11.632Z,40.00
2018-11-04T01:06:40.233Z,39.37
2018-11-04T01:09:09.825Z,41.03
2018-11-04T01:11:38.443Z,38.60
2018-11-04T01:14:07.137Z,38.80
2018-11-04T01:16:37.829Z,42.93
2018-11-04T01:19:06.394Z,44.27
2018-11-04T01:21:35.072Z,41.10
2018-11-04T01:24:03.958Z,40.23
2018-11-04T01:26:32.543Z,40.60
2018-11-04T01:29:02.465Z,42.80
2018-11-04T01:31:31.035Z,45.43
2018-11-04T01:33:59.880Z,40.27
2018-11-04T01:36:35.491Z,39.47
2018-11-04T01:39:05.662Z,43.10
2018-11-04T01:41:34.534Z,43.77
2018-11-04T01:44:03.547Z,43.20
2018-11-04T01:46:32.420Z,43.70
2018-11-04T01:49:02.012Z,44.33
2018-11-04T01:51:30.886Z,44.70
2018-11-04T01:53:59.779Z,44.70
2018-11-04T01:56:40.422Z,43.33
2018-11-04T01:59:09.233Z,41.50
2018-11-04T02:01:38.612Z,47.40
2018-11-04T02:04:07.783Z,42.43
2018-11-04T02:06:36.816Z,47.00
2018-11-04T02:09:08.216Z,44.50
2018-11-04T02:11:37.423Z,44.67
2018-11-04T02:14:06.572Z,42.27
2018-11-04T02:16:35.944Z,43.97
2018-11-04T02:19:04.850Z,49.17
2018-11-04T02:21:33.781Z,44.77
2018-11-04T02:24:02.775Z,48.97
2018-11-04T02:26:31.828Z,45.27
2018-11-04T02:29:01.066Z,48.37
2018-11-04T02:31:29.945Z,41.17
2018-11-04T02:33:58.806Z,41.70
2018-11-04T02:36:27.713Z,45.83
2018-11-04T02:38:56.769Z,44.53
2018-11-04T02:41:25.577Z,39.43
2018-11-04T02:43:54.393Z,46.90
2018-11-04T02:46:23.284Z,46.27
2018-11-04T02:48:52.537Z,44.63
2018-11-04T02:51:21.403Z,50.37
2018-11-04T02:53:50.269Z,44.77
2018-11-04T02:56:19.398Z,48.97
2018-11-04T02:58:48.311Z,51.07
2018-11-04T03:01:17.185Z,48.27
2018-11-04T03:03:46.101Z,46.07
2018-11-04T03:06:14.991Z,41.07
2018-11-04T03:08:43.876Z,51.70
2018-11-04T03:11:12.772Z,43.87
2018-11-04T03:13:41.758Z,46.37
2018-11-04T03:16:10.711Z,43.63
2018-11-04T03:18:39.564Z,41.80
2018-11-04T03:21:08.791Z,49.33
2018-11-04T03:23:37.724Z,37.40
2018-11-04T03:26:06.651Z,45.43
2018-11-04T03:28:35.477Z,52.67
2018-11-04T03:31:04.366Z,43.43
2018-11-04T03:33:33.236Z,45.10
2018-11-04T03:36:02.083Z,48.83
2018-11-04T03:38:30.941Z,51.40
2018-11-04T03:40:59.965Z,47.87
2018-11-04T03:43:29.061Z,46.90
2018-11-04T03:45:57.954Z,42.97
2018-11-04T03:48:26.835Z,47.27
2018-11-04T03:50:55.746Z,45.30
2018-11-04T03:53:24.603Z,49.77
2018-11-04T03:55:53.865Z,47.97
2018-11-04T03:58:22.713Z,49.60
2018-11-04T04:00:51.651Z,48.47
2018-11-04T04:03:20.473Z,51.60
2018-11-04T04:05:49.375Z,51.17
2018-11-04T04:08:18.212Z,49.33
2018-11-04T04:10:47.037Z,52.67
2018-11-04T04:13:15.857Z,46.33
2018-11-04T04:15:44.814Z,41.93
2018-11-04T04:18:13.733Z,47.83
2018-11-04T04:20:42.687Z,48.23
2018-11-04T04:23:13.755Z,48.00
2018-11-04T04:25:42.518Z,45.53
2018-11-04T04:28:11.364Z,48.83
2018-11-04T04:30:40.165Z,49.13
2018-11-04T04:33:09.082Z,50.60
2018-11-04T04:35:37.984Z,34.17
2018-11-04T04:38:06.992Z,51.43
2018-11-04T04:40:35.960Z,50.70
2018-11-04T04:43:04.841Z,48.07
2018-11-04T04:45:33.761Z,50.00
2018-11-04T04:48:02.690Z,48.97
2018-11-04T04:50:31.904Z,43.23
2018-11-04T04:53:00.755Z,48.97
2018-11-04T04:55:29.740Z,44.50
2018-11-04T04:57:58.575Z,48.07
2018-11-04T05:00:27.453Z,48.00
2018-11-04T05:02:56.240Z,47.83
2018-11-04T05:05:25.228Z,49.03
2018-11-04T05:07:54.323Z,49.67
2018-11-04T05:10:23.382Z,49.30
2018-11-04T05:12:52.456Z,46.50
2018-11-04T05:15:21.392Z,46.17
2018-11-04T05:17:50.305Z,42.07
2018-11-04T05:20:19.627Z,49.93
2018-11-04T05:22:48.692Z,48.13
2018-11-04T05:25:17.591Z,48.63
2018-11-04T05:27:46.501Z,48.50
2018-11-04T05:30:15.299Z,52.20
2018-11-04T05:32:44.628Z,50.67
2018-11-04T05:35:13.528Z,48.80
2018-11-04T05:37:42.477Z,47.93
2018-11-04T05:40:11.412Z,46.40
2018-11-04T05:42:40.191Z,45.47
2018-11-04T05:45:09.549Z,53.17
2018-11-04T05:47:38.397Z,50.13
2018-11-04T05:50:07.556Z,43.30
2018-11-04T05:52:36.915Z,50.33
2018-11-04T05:55:08.618Z,48.07
2018-11-04T05:57:37.410Z,50.10
2018-11-04T06:00:07.587Z,51.37
2018-11-04T06:02:37.855Z,48.53
2018-11-04T06:05:08.119Z,91.13
2018-11-04T06:07:37.915Z,55.03
2018-11-04T06:10:08.133Z,69.20
2018-11-04T06:12:37.602Z,46.53
2018-11-04T06:15:07.593Z,44.70
2018-11-04T06:17:36.635Z,48.40
2018-11-04T06:20:06.483Z,51.17
2018-11-04T06:22:35.360Z,49.63
2018-11-04T06:25:06.422Z,43.77
2018-11-04T06:27:35.781Z,45.00
2018-11-04T06:30:05.707Z,44.43
2018-11-04T06:32:35.091Z,44.93
2018-11-04T06:35:04.003Z,45.60
2018-11-04T06:37:33.307Z,48.30
2018-11-04T06:40:04.433Z,44.20
2018-11-04T06:42:33.381Z,47.20
2018-11-04T06:45:02.335Z,47.13
2018-11-04T06:47:31.297Z,47.10
2018-11-04T06:50:00.179Z,46.90
2018-11-04T06:52:29.075Z,54.03
2018-11-04T06:54:58.041Z,43.00
2018-11-04T06:57:27.076Z,44.60
2018-11-04T06:59:57.997Z,45.30
2018-11-04T07:02:26.936Z,43.37
2018-11-04T07:04:55.840Z,46.97
2018-11-04T07:07:24.719Z,45.40
2018-11-04T07:09:53.642Z,47.87
2018-11-04T07:12:22.494Z,46.67
2018-11-04T07:14:51.391Z,44.97
2018-11-04T07:17:20.300Z,37.77
2018-11-04T07:19:49.178Z,40.77
2018-11-04T07:22:18.081Z,42.30
2018-11-04T07:24:47.148Z,46.10
2018-11-04T07:27:16.304Z,42.80
2018-11-04T07:29:45.305Z,40.90
2018-11-04T07:32:15.023Z,43.03
2018-11-04T07:34:43.866Z,40.47
2018-11-04T07:37:12.759Z,42.60
2018-11-04T07:39:41.705Z,41.33
2018-11-04T07:42:10.632Z,39.93
2018-11-04T07:44:39.877Z,39.90
2018-11-04T07:47:08.898Z,42.97
2018-11-04T07:49:37.765Z,43.03
2018-11-04T07:52:06.773Z,39.27
2018-11-04T07:54:35.657Z,41.17
2018-11-04T07:57:04.659Z,34.30
2018-11-04T07:59:33.482Z,45.30
2018-11-04T08:02:02.351Z,42.13
2018-11-04T08:04:31.341Z,38.30
2018-11-04T08:07:00.250Z,34.60
2018-11-04T08:09:29.111Z,39.93
2018-11-04T08:14:48.679Z,39.17
2018-11-04T08:17:17.881Z,42.83
2018-11-04T08:19:46.802Z,40.83
2018-11-04T08:22:16.756Z,37.57
2018-11-04T08:24:45.727Z,39.07
2018-11-04T08:27:14.762Z,42.77
2018-11-04T08:29:43.653Z,40.83
2018-11-04T08:32:12.550Z,39.67
2018-11-04T08:34:41.423Z,39.70
2018-11-04T08:37:11.174Z,39.57
2018-11-04T08:39:40.193Z,42.73
2018-11-04T08:42:09.476Z,35.60
2018-11-04T08:44:38.368Z,38.23
2018-11-04T08:47:07.564Z,38.57
2018-11-04T08:49:36.452Z,32.57
2018-11-04T08:52:05.850Z,37.07
2018-11-04T08:54:34.853Z,36.33
2018-11-04T08:57:03.774Z,32.90
2018-11-04T08:59:33.004Z,35.03
2018-11-04T09:02:02.083Z,34.90
2018-11-04T09:04:31.026Z,39.40
2018-11-04T09:07:00.102Z,39.00
2018-11-04T09:09:29.092Z,38.97
2018-11-04T09:11:58.760Z,31.80
2018-11-04T09:14:28.240Z,38.57
2018-11-04T09:17:16.553Z,36.37
2018-11-04T09:19:45.332Z,32.30
2018-11-04T09:22:14.145Z,38.93
2018-11-04T09:24:43.015Z,39.00
2018-11-04T09:27:12.077Z,38.93
2018-11-04T09:29:40.966Z,37.67
2018-11-04T09:32:10.330Z,41.37
2018-11-04T09:34:39.349Z,36.17
2018-11-04T09:37:08.183Z,36.93
2018-11-04T09:39:37.307Z,41.57
2018-11-04T09:42:06.629Z,41.80
2018-11-04T09:44:35.444Z,39.70
2018-11-04T09:47:04.400Z,40.67
2018-11-04T09:49:33.414Z,42.27
2018-11-04T09:52:02.599Z,37.73
2018-11-04T09:54:31.442Z,39.70
2018-11-04T09:57:00.303Z,39.10
2018-11-04T09:59:29.243Z,40.50
2018-11-04T10:01:58.137Z,37.40
2018-11-04T10:04:27.055Z,42.07
2018-11-04T10:06:55.909Z,43.77
2018-11-04T10:09:24.915Z,40.07
2018-11-04T10:11:53.911Z,43.00
2018-11-04T10:14:22.902Z,39.00
2018-11-04T10:16:52.014Z,40.97
2018-11-04T10:19:21.108Z,41.57
2018-11-04T10:21:49.804Z,40.30
2018-11-04T10:24:18.843Z,37.60
2018-11-04T10:26:47.877Z,39.07
2018-11-04T10:29:16.806Z,39.87
2018-11-04T10:31:45.746Z,37.97
2018-11-04T10:34:14.659Z,37.33
2018-11-04T10:36:43.556Z,38.13
2018-11-04T10:39:13.363Z,39.43
2018-11-04T10:41:43.003Z,38.87
2018-11-04T10:44:11.878Z,36.93
2018-11-04T10:46:40.801Z,39.33
2018-11-04T10:49:10.030Z,42.50
2018-11-04T10:51:38.936Z,39.83
2018-11-04T10:54:07.882Z,40.23
2018-11-04T10:56:37.222Z,38.17
2018-11-04T10:59:07.109Z,36.30
2018-11-04T11:01:40.160Z,38.57
2018-11-04T11:04:13.077Z,43.77
2018-11-04T11:06:44.657Z,42.17
2018-11-04T11:09:15.972Z,35.23
2018-11-04T11:11:50.018Z,41.90
2018-11-04T11:14:20.744Z,40.43
2018-11-04T11:17:01.207Z,43.17
2018-11-04T11:19:35.567Z,39.43
2018-11-04T11:22:06.251Z,41.97
2018-11-04T11:24:36.628Z,39.57
2018-11-04T11:27:06.936Z,41.77
2018-11-04T11:29:37.579Z,41.40
2018-11-04T11:32:09.861Z,48.70
2018-11-04T11:34:38.883Z,41.00
2018-11-04T11:37:07.930Z,36.97
2018-11-04T11:39:37.013Z,37.33
2018-11-04T11:42:06.289Z,45.17
2018-11-04T11:44:35.536Z,41.93
2018-11-04T11:47:04.494Z,42.43
2018-11-04T11:49:34.993Z,42.40
2018-11-04T11:52:04.968Z,39.40
2018-11-04T11:54:33.945Z,41.67
2018-11-04T11:57:02.819Z,38.20
2018-11-04T11:59:31.921Z,42.33
2018-11-04T12:02:00.942Z,44.53
2018-11-04T12:04:29.831Z,43.73
2018-11-04T12:06:59.050Z,43.43
2018-11-04T12:09:28.087Z,43.60
2018-11-04T12:11:57.694Z,43.60
2018-11-04T12:14:26.590Z,39.33
2018-11-04T12:16:55.742Z,38.10
2018-11-04T12:19:24.641Z,43.97
2018-11-04T12:21:53.631Z,40.17
2018-11-04T12:24:22.484Z,40.03
2018-11-04T12:26:51.920Z,43.03
2018-11-04T12:29:20.921Z,45.23
2018-11-04T12:31:49.760Z,45.93
2018-11-04T12:34:19.992Z,43.07
2018-11-04T12:36:49.098Z,40.30
2018-11-04T12:39:17.981Z,41.03
2018-11-04T12:41:46.926Z,42.87
2018-11-04T12:44:16.064Z,41.57
2018-11-04T12:46:45.005Z,41.77
2018-11-04T12:49:16.230Z,40.97
2018-11-04T12:51:45.035Z,38.93
2018-11-04T12:54:14.446Z,42.43
2018-11-04T12:56:43.367Z,40.10
2018-11-04T12:59:12.842Z,39.17
2018-11-04T13:01:42.725Z,41.27
2018-11-04T13:04:11.846Z,44.83
2018-11-04T13:06:40.760Z,38.53
2018-11-04T13:09:10.367Z,37.60
2018-11-04T13:11:39.978Z,37.93
2018-11-04T13:14:09.460Z,40.93
2018-11-04T13:16:38.371Z,36.77
2018-11-04T13:19:07.346Z,36.80
2018-11-04T13:21:36.326Z,33.67
2018-11-04T13:24:05.750Z,34.53
2018-11-04T13:26:34.719Z,32.70
2018-11-04T13:29:03.709Z,31.87
2018-11-04T13:31:32.636Z,29.03
2018-11-04T13:34:01.516Z,30.70
2018-11-04T13:36:39.988Z,29.80
2018-11-04T13:39:21.594Z,33.17
2018-11-04T13:41:50.753Z,37.63
2018-11-04T13:44:19.765Z,40.37
2018-11-04T13:46:48.713Z,38.93
2018-11-04T13:49:17.580Z,37.30
2018-11-04T13:51:46.724Z,41.13
2018-11-04T13:54:15.710Z,35.63
2018-11-04T13:56:44.637Z,34.47
2018-11-04T13:59:13.621Z,35.57
2018-11-04T14:01:42.489Z,39.53
2018-11-04T14:04:11.452Z,40.63
2018-11-04T14:06:42.254Z,39.73
2018-11-04T14:09:14.868Z,38.93
2018-11-04T14:11:43.982Z,40.93
2018-11-04T14:14:13.877Z,42.73
2018-11-04T14:16:44.133Z,43.60
2018-11-04T14:19:14.663Z,48.23
2018-11-04T14:21:45.255Z,42.07
2018-11-04T14:24:15.422Z,40.83
2018-11-04T14:26:44.376Z,47.40
2018-11-04T14:29:14.088Z,45.37
2018-11-04T14:31:43.031Z,44.83
2018-11-04T14:34:13.989Z,42.57
2018-11-04T14:36:51.449Z,44.67
2018-11-04T14:39:22.947Z,44.97
2018-11-04T14:41:52.684Z,46.67
2018-11-04T14:44:21.677Z,41.00
2018-11-04T14:46:50.652Z,48.10
2018-11-04T14:49:19.849Z,40.83
2018-11-04T14:51:49.163Z,42.10
2018-11-04T14:54:18.167Z,35.47
2018-11-04T14:56:47.471Z,43.13
2018-11-04T14:59:16.558Z,38.00
2018-11-04T15:01:45.755Z,42.57
2018-11-04T15:04:14.495Z,40.63
2018-11-04T15:06:43.693Z,38.47
2018-11-04T15:09:12.724Z,51.63
2018-11-04T15:11:41.777Z,36.97
2018-11-04T15:14:11.788Z,42.73
2018-11-04T15:16:40.744Z,41.43
2018-11-04T15:19:10.296Z,39.37
2018-11-04T15:21:40.271Z,42.17
2018-11-04T15:24:09.235Z,52.67
2018-11-04T15:26:38.265Z,45.57
2018-11-04T15:29:07.046Z,47.90
2018-11-04T15:31:36.012Z,43.40
2018-11-04T15:34:05.622Z,46.03
2018-11-04T15:36:35.111Z,48.80
2018-11-04T15:39:06.168Z,41.23
2018-11-04T15:41:35.540Z,43.53
2018-11-04T15:44:04.521Z,40.87
2018-11-04T15:46:33.418Z,40.90
2018-11-04T15:49:02.452Z,47.90
2018-11-04T15:51:31.221Z,38.70
2018-11-04T15:54:00.199Z,37.80
2018-11-04T15:56:29.323Z,38.70
2018-11-04T15:58:59.067Z,45.10
2018-11-04T16:01:29.363Z,47.00
2018-11-04T16:03:58.384Z,43.83
2018-11-04T16:06:27.717Z,46.10
2018-11-04T16:08:58.032Z,43.50
2018-11-04T16:11:28.155Z,43.10
2018-11-04T16:13:56.995Z,44.17
2018-11-04T16:16:25.995Z,47.43
2018-11-04T16:18:55.046Z,47.07
2018-11-04T16:21:24.080Z,44.60
2018-11-04T16:23:52.939Z,44.40
2018-11-04T16:26:21.896Z,42.90
2018-11-04T16:28:51.099Z,49.70
2018-11-04T16:31:20.213Z,51.57
2018-11-04T16:33:49.110Z,47.33
2018-11-04T16:36:18.039Z,44.67
2018-11-04T16:38:47.028Z,44.47
2018-11-04T16:41:16.916Z,41.70
2018-11-04T16:43:45.922Z,42.37
2018-11-04T16:46:15.360Z,44.77
2018-11-04T16:48:44.672Z,45.47
2018-11-04T16:51:14.177Z,49.80
2018-11-04T16:53:43.616Z,49.27
2018-11-04T16:56:12.514Z,47.10
2018-11-04T16:58:42.172Z,50.70
2018-11-04T17:01:11.159Z,47.07
2018-11-04T17:03:40.146Z,47.97
2018-11-04T17:06:09.205Z,51.93
2018-11-04T17:08:38.081Z,44.73
2018-11-04T17:11:07.129Z,52.67
2018-11-04T17:13:38.081Z,45.50
2018-11-04T17:16:07.264Z,55.07
2018-11-04T17:18:36.196Z,52.67
2018-11-04T17:21:06.480Z,49.00
2018-11-04T17:23:36.702Z,51.77
2018-11-04T17:26:06.181Z,48.20
2018-11-04T17:28:35.243Z,48.83
2018-11-04T17:31:04.547Z,49.20
2018-11-04T17:33:33.522Z,49.90
2018-11-04T17:36:02.764Z,51.40
2018-11-04T17:38:32.136Z,56.13
2018-11-04T17:41:01.187Z,50.73
2018-11-04T17:43:30.264Z,48.70
2018-11-04T17:45:59.433Z,52.93
2018-11-04T17:48:28.925Z,51.37
2018-11-04T17:50:57.828Z,48.37
2018-11-04T17:53:27.587Z,50.63
2018-11-04T17:55:56.500Z,52.67
2018-11-04T17:58:25.949Z,49.97
2018-11-04T18:00:55.265Z,52.03
2018-11-04T18:03:24.289Z,48.93
2018-11-04T18:05:53.242Z,51.30
2018-11-04T18:08:22.382Z,55.40
2018-11-04T18:10:52.767Z,51.63
2018-11-04T18:13:22.846Z,53.07
2018-11-04T18:15:52.475Z,56.63
2018-11-04T18:18:21.419Z,62.43
2018-11-04T18:20:50.861Z,68.93
2018-11-04T18:23:20.723Z,58.33
2018-11-04T18:25:49.645Z,51.13
2018-11-04T18:28:18.826Z,60.27
2018-11-04T18:30:51.337Z,61.63
2018-11-04T18:33:20.401Z,60.60
2018-11-04T18:35:49.551Z,50.30
2018-11-04T18:38:20.987Z,54.10
2018-11-04T18:40:50.365Z,52.03
2018-11-04T18:43:19.682Z,60.07
2018-11-04T18:45:48.771Z,49.87
2018-11-04T18:48:17.635Z,53.20
2018-11-04T18:50:46.717Z,56.13
2018-11-04T18:53:15.774Z,51.23
2018-11-04T18:55:44.758Z,65.10
2018-11-04T18:58:13.584Z,52.80
2018-11-04T19:00:42.918Z,50.50
2018-11-04T19:03:11.758Z,67.10
2018-11-04T19:05:40.748Z,53.53
2018-11-04T19:08:09.599Z,58.77
2018-11-04T19:10:38.530Z,50.33
2018-11-04T19:13:07.504Z,56.00
2018-11-04T19:15:36.754Z,52.87
2018-11-04T19:18:05.724Z,56.37
2018-11-04T19:20:34.989Z,55.33
2018-11-04T19:23:03.963Z,56.27
2018-11-04T19:25:32.847Z,56.03
2018-11-04T19:28:01.745Z,53.90
2018-11-04T19:30:30.727Z,52.50
2018-11-04T19:33:00.026Z,59.10
2018-11-04T19:35:28.975Z,60.27
2018-11-04T19:37:58.143Z,60.70
2018-11-04T19:40:27.038Z,58.07
2018-11-04T19:42:56.561Z,61.13
2018-11-04T19:45:25.725Z,52.53
2018-11-04T19:47:56.488Z,57.00
2018-11-04T19:50:25.430Z,57.23
2018-11-04T19:52:55.110Z,53.43
2018-11-04T19:55:24.768Z,64.20
2018-11-04T19:57:53.874Z,58.80
2018-11-04T20:00:22.747Z,72.57
2018-11-04T20:02:53.054Z,67.97
2018-11-04T20:05:22.229Z,60.10
2018-11-04T20:07:53.808Z,64.93
2018-11-04T20:10:24.169Z,72.60
2018-11-04T20:12:58.560Z,69.90
2018-11-04T20:15:27.889Z,78.37
2018-11-04T20:17:57.691Z,73.10
2018-11-04T20:20:28.679Z,74.27
2018-11-04T20:23:01.227Z,76.27
2018-11-04T20:25:36.623Z,77.87
2018-11-04T20:28:06.389Z,75.03
2018-11-04T20:30:35.792Z,77.53
2018-11-04T20:33:08.237Z,84.43
2018-11-04T20:35:38.405Z,83.83
2018-11-04T20:38:08.246Z,86.40
2018-11-04T20:40:42.479Z,89.67
2018-11-04T20:43:12.614Z,73.00
2018-11-04T20:45:43.757Z,95.10
2018-11-04T20:48:18.598Z,98.33
2018-11-04T20:50:53.857Z,107.30
2018-11-04T20:53:24.112Z,116.27
2018-11-04T20:55:59.373Z,115.53
2018-11-04T20:58:28.365Z,107.53
2018-11-04T21:01:02.923Z,104.13
2018-11-04T21:03:33.046Z,119.60
2018-11-04T21:06:03.057Z,107.80
2018-11-04T21:08:33.193Z,122.83
2018-11-04T21:11:03.505Z,129.33
2018-11-04T21:13:32.759Z,148.03
2018-11-04T21:16:02.032Z,139.03
2018-11-04T21:18:31.766Z,96.70
2018-11-04T21:21:00.640Z,185.07
2018-11-04T21:23:29.700Z,170.60
2018-11-04T21:25:58.814Z,168.80
2018-11-04T21:28:27.835Z,190.57
2018-11-04T21:30:56.673Z,176.80
2018-11-04T21:33:27.080Z,197.10
2018-11-04T21:35:56.026Z,194.07
2018-11-04T21:38:24.888Z,164.27
2018-11-04T21:41:00.272Z,169.97
2018-11-04T21:43:30.318Z,200.33
2018-11-04T21:46:00.275Z,989.20
2018-11-04T21:48:30.229Z,238.67
2018-11-04T21:50:59.210Z,224.33
2018-11-04T21:53:31.141Z,292.27
2018-11-04T21:56:00.189Z,171.67
2018-11-04T21:58:28.961Z,343.67
2018-11-04T22:00:57.963Z,337.97
2018-11-04T22:03:26.970Z,258.93
2018-11-04T22:05:55.953Z,134.77
2018-11-04T22:08:24.748Z,137.23
2018-11-04T22:10:53.807Z,386.23
2018-11-04T22:13:22.686Z,229.33
2018-11-04T22:15:51.644Z,154.77
2018-11-04T22:18:43.155Z,199.73
2018-11-04T22:21:12.292Z,109.90
2018-11-04T22:23:41.086Z,176.00
2018-11-04T22:26:09.998Z,130.73
2018-11-04T22:28:38.873Z,169.00
2018-11-04T22:31:08.153Z,190.60
2018-11-04T22:33:37.039Z,212.80
2018-11-04T22:36:06.312Z,247.90
2018-11-04T22:38:35.135Z,163.63
2018-11-04T22:41:04.030Z,436.37
2018-11-04T22:43:32.862Z,368.03
2018-11-04T22:46:01.764Z,721.43
2018-11-04T22:48:31.402Z,664.17
2018-11-04T22:51:00.779Z,754.73
2018-11-04T22:53:29.991Z,852.47
2018-11-04T22:55:59.686Z,898.53
2018-11-04T22:58:28.728Z,461.70
2018-11-04T23:01:02.177Z,727.97
2018-11-04T23:03:32.047Z,565.40
2018-11-04T23:06:05.408Z,610.53
2018-11-04T23:08:34.365Z,605.50
2018-11-04T23:11:03.607Z,747.23
2018-11-04T23:13:32.842Z,565.40
2018-11-04T23:16:01.981Z,223.50
2018-11-04T23:18:31.770Z,274.17
2018-11-04T23:21:00.620Z,217.67
2018-11-04T23:23:29.764Z,131.77
2018-11-04T23:25:59.358Z,129.00
2018-11-04T23:28:28.287Z,96.57
2018-11-04T23:30:57.594Z,93.13
2018-11-04T23:33:26.485Z,73.77
2018-11-04T23:35:56.671Z,78.17
2018-11-04T23:38:25.968Z,79.47
2018-11-04T23:40:56.039Z,81.23
2018-11-04T23:43:27.328Z,71.57
2018-11-04T23:45:56.211Z,85.70
2018-11-04T23:48:25.209Z,67.10
2018-11-04T23:50:56.071Z,90.13
2018-11-04T23:53:25.013Z,95.63
2018-11-04T23:55:53.894Z,97.77
2018-11-04T23:58:22.814Z,93.27
